Time;durP1;ratioP1;P1;durP2;ratioP2;P2;SDS_P1;SDS_P2;PMS_P1;PMS_P2;Temp;Humidity;BMP_temperature;BMP_pressure;BME280_temperature;BME280_humidity;BME280_pressure;Samples;Min_cycle;Max_cycle;Signal;HPM_P1;HPM_P2
2021/04/30 00:00:55;;;;;;;21.85;6.75;;;;;;;;;;4271988;33;20221;-60
2021/04/30 00:03:21;;;;;;;14.63;6.50;;;;;;;;;;4275511;33;20694;-61
2021/04/30 00:05:47;;;;;;;18.00;6.90;;;;;;;;;;4275622;33;20220;-62
2021/04/30 00:08:13;;;;;;;26.73;9.80;;;;;;;;;;4272313;33;20335;-62
2021/04/30 00:10:40;;;;;;;19.92;9.77;;;;;;;;;;4261886;33;20594;-60
2021/04/30 00:13:06;;;;;;;18.70;8.30;;;;;;;;;;4263755;33;20362;-63
2021/04/30 00:15:33;;;;;;;27.73;8.15;;;;;;;;;;4280487;33;20281;-61
2021/04/30 00:18:04;;;;;;;17.95;7.28;;;;;;;;;;4259022;33;20213;-62
2021/04/30 00:20:36;;;;;;;16.12;7.35;;;;;;;;;;4273036;33;20352;-62
2021/04/30 00:23:02;;;;;;;16.48;6.82;;;;;;;;;;4263738;33;20309;-63
2021/04/30 00:25:28;;;;;;;14.45;6.37;;;;;;;;;;4280384;33;20310;-60
2021/04/30 00:27:55;;;;;;;20.92;8.05;;;;;;;;;;4261704;33;20546;-60
2021/04/30 00:30:20;;;;;;;20.85;7.12;;;;;;;;;;4278130;33;20310;-61
2021/04/30 00:32:46;;;;;;;23.02;6.65;;;;;;;;;;4266591;33;20200;-61
2021/04/30 00:35:12;;;;;;;15.75;7.55;;;;;;;;;;4280306;33;20295;-62
2021/04/30 00:37:38;;;;;;;21.70;8.40;;;;;;;;;;4262669;33;20201;-61
2021/04/30 00:40:09;;;;;;;24.05;8.80;;;;;;;;;;4276401;33;20397;-61
2021/04/30 00:42:35;;;;;;;33.38;9.80;;;;;;;;;;4268708;33;20296;-61
2021/04/30 00:45:01;;;;;;;22.55;9.27;;;;;;;;;;4278846;33;20583;-62
2021/04/30 00:47:29;;;;;;;27.77;9.38;;;;;;;;;;4261163;33;20283;-61
2021/04/30 00:49:55;;;;;;;28.90;8.75;;;;;;;;;;4281709;33;20307;-61
2021/04/30 00:52:20;;;;;;;22.40;8.18;;;;;;;;;;4271235;33;20402;-61
2021/04/30 00:54:47;;;;;;;26.62;8.27;;;;;;;;;;4276062;33;20301;-61
2021/04/30 00:57:14;;;;;;;15.70;7.87;;;;;;;;;;4260461;33;20263;-62
2021/04/30 00:59:40;;;;;;;26.05;7.85;;;;;;;;;;4277387;33;20250;-61
2021/04/30 01:02:06;;;;;;;14.57;7.45;;;;;;;;;;4264112;33;20208;-60
2021/04/30 01:04:32;;;;;;;23.80;10.07;;;;;;;;;;4272986;33;20797;-62
2021/04/30 01:06:57;;;;;;;24.63;9.93;;;;;;;;;;4264455;33;20291;-58
2021/04/30 01:09:23;;;;;;;29.48;10.32;;;;;;;;;;4267173;33;20220;-59
2021/04/30 01:11:50;;;;;;;15.73;9.20;;;;;;;;;;4281163;33;20244;-60
2021/04/30 01:14:17;;;;;;;25.45;8.05;;;;;;;;;;4277243;33;20220;-59
2021/04/30 01:16:43;;;;;;;23.38;9.60;;;;;;;;;;4275447;33;20366;-59
2021/04/30 01:19:08;;;;;;;20.12;9.52;;;;;;;;;;4271413;33;20399;-60
2021/04/30 01:21:34;;;;;;;18.37;9.38;;;;;;;;;;4278864;33;20247;-59
2021/04/30 01:24:00;;;;;;;26.92;10.65;;;;;;;;;;4273267;33;20756;-59
2021/04/30 01:26:25;;;;;;;16.33;7.87;;;;;;;;;;4277234;33;20310;-60
2021/04/30 01:28:51;;;;;;;21.42;6.97;;;;;;;;;;4271758;33;20286;-59
2021/04/30 01:31:18;;;;;;;13.73;6.87;;;;;;;;;;4282543;33;20641;-60
2021/04/30 01:33:44;;;;;;;19.73;7.37;;;;;;;;;;4270664;33;20236;-57
2021/04/30 01:36:09;;;;;;;19.05;6.78;;;;;;;;;;4270516;33;21159;-57
2021/04/30 01:38:35;;;;;;;21.50;7.15;;;;;;;;;;4270002;33;20299;-57
2021/04/30 01:41:02;;;;;;;22.73;6.65;;;;;;;;;;4281644;33;20582;-57
2021/04/30 01:43:28;;;;;;;15.95;7.40;;;;;;;;;;4272624;33;20204;-62
2021/04/30 01:45:56;;;;;;;15.48;6.53;;;;;;;;;;4280553;33;20287;-62
2021/04/30 01:48:25;;;;;;;28.12;9.25;;;;;;;;;;4276042;33;20196;-63
2021/04/30 01:50:51;;;;;;;19.87;7.85;;;;;;;;;;4283207;33;20258;-63
2021/04/30 01:53:21;;;;;;;15.20;6.85;;;;;;;;;;4272676;33;20287;-62
2021/04/30 01:55:46;;;;;;;20.60;6.07;;;;;;;;;;4281443;33;20251;-63
2021/04/30 01:58:12;;;;;;;19.00;6.12;;;;;;;;;;4275771;33;20283;-62
2021/04/30 02:00:38;;;;;;;25.88;11.23;;;;;;;;;;4275893;33;20220;-63
2021/04/30 02:03:04;;;;;;;25.20;8.80;;;;;;;;;;4274052;33;20255;-65
2021/04/30 02:05:32;;;;;;;21.08;8.27;;;;;;;;;;4282215;33;20454;-67
2021/04/30 02:08:06;;;;;;;22.65;7.90;;;;;;;;;;4273147;33;20250;-61
2021/04/30 02:10:32;;;;;;;26.02;6.75;;;;;;;;;;4278403;33;20216;-57
2021/04/30 02:12:58;;;;;;;19.02;7.32;;;;;;;;;;4276626;33;20228;-57
2021/04/30 02:15:26;;;;;;;19.00;6.05;;;;;;;;;;4271743;33;20329;-57
2021/04/30 02:17:52;;;;;;;21.45;6.18;;;;;;;;;;4273624;33;20629;-64
2021/04/30 02:20:18;;;;;;;18.85;7.20;;;;;;;;;;4278801;33;20377;-63
2021/04/30 02:22:44;;;;;;;17.55;6.07;;;;;;;;;;4277882;33;20200;-64
2021/04/30 02:25:12;;;;;;;15.73;6.18;;;;;;;;;;4284872;33;20267;-64
2021/04/30 02:27:38;;;;;;;17.02;6.25;;;;;;;;;;4274340;33;20699;-64
2021/04/30 02:30:06;;;;;;;24.00;6.40;;;;;;;;;;4277839;33;20279;-64
2021/04/30 02:32:33;;;;;;;27.67;6.72;;;;;;;;;;4263579;33;20233;-64
2021/04/30 02:34:59;;;;;;;14.18;5.93;;;;;;;;;;4265887;33;20228;-64
2021/04/30 02:37:24;;;;;;;20.12;6.55;;;;;;;;;;4271020;33;20818;-63
2021/04/30 02:39:50;;;;;;;22.40;6.28;;;;;;;;;;4276477;33;20704;-62
2021/04/30 02:42:16;;;;;;;28.65;6.70;;;;;;;;;;4290942;33;20315;-61
2021/04/30 02:44:42;;;;;;;23.38;6.68;;;;;;;;;;4280705;33;20388;-60
2021/04/30 02:47:07;;;;;;;20.67;6.87;;;;;;;;;;4275048;33;20669;-60
2021/04/30 02:49:40;;;;;;;19.42;6.53;;;;;;;;;;4283906;33;20454;-60
2021/04/30 02:52:07;;;;;;;13.77;6.53;;;;;;;;;;4281268;33;20295;-61
2021/04/30 02:54:33;;;;;;;25.75;8.63;;;;;;;;;;4279545;33;20409;-61
2021/04/30 02:56:59;;;;;;;16.90;7.85;;;;;;;;;;4273394;33;20225;-63
2021/04/30 02:59:24;;;;;;;20.12;8.20;;;;;;;;;;4283941;33;20317;-62
2021/04/30 03:01:50;;;;;;;21.83;9.35;;;;;;;;;;4275067;33;20224;-63
2021/04/30 03:04:15;;;;;;;25.33;8.60;;;;;;;;;;4278866;33;20299;-61
2021/04/30 03:06:40;;;;;;;22.02;7.68;;;;;;;;;;4277725;33;20327;-63
2021/04/30 03:09:06;;;;;;;18.30;6.85;;;;;;;;;;4283705;33;20272;-60
2021/04/30 03:11:32;;;;;;;17.42;7.72;;;;;;;;;;4260603;33;20643;-59
2021/04/30 03:13:57;;;;;;;17.90;8.10;;;;;;;;;;4263832;33;20675;-59
2021/04/30 03:16:23;;;;;;;24.30;7.85;;;;;;;;;;4285032;33;20231;-59
2021/04/30 03:18:48;;;;;;;16.02;5.43;;;;;;;;;;4261961;33;20374;-59
2021/04/30 03:21:14;;;;;;;15.68;5.72;;;;;;;;;;4280623;33;20637;-59
2021/04/30 03:23:39;;;;;;;15.40;6.32;;;;;;;;;;4263786;33;20653;-59
2021/04/30 03:26:05;;;;;;;21.52;6.75;;;;;;;;;;4274442;33;20399;-59
2021/04/30 03:28:31;;;;;;;25.30;6.20;;;;;;;;;;4265788;33;20772;-59
2021/04/30 03:30:57;;;;;;;22.48;6.40;;;;;;;;;;4281131;33;20295;-61
2021/04/30 03:33:22;;;;;;;12.40;5.37;;;;;;;;;;4262684;33;20272;-62
2021/04/30 03:35:48;;;;;;;18.40;6.40;;;;;;;;;;4269392;33;20240;-63
2021/04/30 03:38:13;;;;;;;15.25;6.15;;;;;;;;;;4271837;33;20349;-62
2021/04/30 03:40:39;;;;;;;13.63;5.77;;;;;;;;;;4280810;33;20212;-63
2021/04/30 03:43:04;;;;;;;15.77;6.97;;;;;;;;;;4263353;33;20535;-62
2021/04/30 03:45:30;;;;;;;24.35;8.43;;;;;;;;;;4281245;33;20378;-63
2021/04/30 03:47:56;;;;;;;22.92;8.57;;;;;;;;;;4266348;33;20697;-63
2021/04/30 03:50:21;;;;;;;17.58;9.50;;;;;;;;;;4283841;33;20279;-63
2021/04/30 03:52:47;;;;;;;17.00;9.57;;;;;;;;;;4264013;33;20279;-60
2021/04/30 03:55:12;;;;;;;21.70;9.23;;;;;;;;;;4280956;33;20275;-59
2021/04/30 03:57:38;;;;;;;22.13;9.23;;;;;;;;;;4262950;33;20235;-59
2021/04/30 04:00:05;;;;;;;25.10;9.95;;;;;;;;;;4275422;33;20419;-58
2021/04/30 04:02:30;;;;;;;30.83;10.18;;;;;;;;;;4268489;33;20236;-58
2021/04/30 04:04:56;;;;;;;21.12;9.25;;;;;;;;;;4277231;33;20297;-59
2021/04/30 04:07:21;;;;;;;20.73;9.85;;;;;;;;;;4260836;33;20256;-59
2021/04/30 04:09:46;;;;;;;28.75;8.95;;;;;;;;;;4289148;33;20758;-60
2021/04/30 04:12:12;;;;;;;24.42;10.10;;;;;;;;;;4266587;33;20236;-60
2021/04/30 04:14:37;;;;;;;22.27;9.73;;;;;;;;;;4280100;33;20613;-60
2021/04/30 04:17:03;;;;;;;23.58;10.63;;;;;;;;;;4264752;33;20423;-61
2021/04/30 04:19:29;;;;;;;25.53;9.57;;;;;;;;;;4279579;33;20267;-63
2021/04/30 04:21:54;;;;;;;26.73;11.83;;;;;;;;;;4264964;33;20212;-62
2021/04/30 04:24:19;;;;;;;22.73;11.82;;;;;;;;;;4278105;33;20726;-60
2021/04/30 04:26:45;;;;;;;26.92;10.35;;;;;;;;;;4267125;33;20303;-60
2021/04/30 04:29:10;;;;;;;27.87;13.25;;;;;;;;;;4271409;33;20346;-60
2021/04/30 04:31:36;;;;;;;24.67;11.50;;;;;;;;;;4280712;33;20628;-60
2021/04/30 04:34:02;;;;;;;21.73;11.23;;;;;;;;;;4276077;33;20359;-60
2021/04/30 04:36:28;;;;;;;26.35;11.27;;;;;;;;;;4270229;33;20229;-61
2021/04/30 04:38:53;;;;;;;28.27;11.00;;;;;;;;;;4266814;33;20267;-59
2021/04/30 04:41:19;;;;;;;32.13;11.82;;;;;;;;;;4282122;33;20251;-60
2021/04/30 04:43:44;;;;;;;17.23;9.27;;;;;;;;;;4263110;33;20705;-61
2021/04/30 04:46:10;;;;;;;24.02;9.77;;;;;;;;;;4273213;33;20287;-61
2021/04/30 04:48:35;;;;;;;24.58;11.05;;;;;;;;;;4261194;33;20327;-61
2021/04/30 04:51:01;;;;;;;18.70;10.75;;;;;;;;;;4259314;33;20633;-62
2021/04/30 04:53:26;;;;;;;24.45;11.90;;;;;;;;;;4275089;33;20306;-63
2021/04/30 04:55:52;;;;;;;24.80;11.50;;;;;;;;;;4277029;33;20526;-64
2021/04/30 04:58:18;;;;;;;29.10;14.05;;;;;;;;;;4269924;33;20259;-62
2021/04/30 05:00:44;;;;;;;32.33;14.43;;;;;;;;;;4266993;33;20290;-62
2021/04/30 05:03:09;;;;;;;32.75;12.93;;;;;;;;;;4272124;33;20272;-62
2021/04/30 05:05:35;;;;;;;30.10;13.68;;;;;;;;;;4280030;33;20282;-62
2021/04/30 05:08:00;;;;;;;28.92;14.55;;;;;;;;;;4265906;33;20211;-61
2021/04/30 05:10:26;;;;;;;40.30;13.85;;;;;;;;;;4281975;33;20212;-65
2021/04/30 05:12:52;;;;;;;25.23;10.88;;;;;;;;;;4264728;33;20213;-63
2021/04/30 05:15:18;;;;;;;25.52;10.55;;;;;;;;;;4279658;33;20390;-64
2021/04/30 05:17:43;;;;;;;28.02;10.07;;;;;;;;;;4258144;33;20275;-64
2021/04/30 05:20:11;;;;;;;25.92;9.88;;;;;;;;;;4268245;33;20309;-64
2021/04/30 05:22:39;;;;;;;17.35;7.30;;;;;;;;;;4276721;33;20290;-60
2021/04/30 05:25:06;;;;;;;17.65;6.15;;;;;;;;;;4269531;33;20299;-60
2021/04/30 05:27:32;;;;;;;15.60;5.57;;;;;;;;;;4259161;33;20228;-60
2021/04/30 05:29:58;;;;;;;18.02;6.60;;;;;;;;;;4272197;33;20740;-60
2021/04/30 05:32:23;;;;;;;12.25;5.55;;;;;;;;;;4269229;33;20342;-60
2021/04/30 05:34:49;;;;;;;17.27;6.20;;;;;;;;;;4267849;33;20401;-60
2021/04/30 05:37:14;;;;;;;24.75;7.20;;;;;;;;;;4256615;33;20300;-59
2021/04/30 05:39:40;;;;;;;21.02;6.55;;;;;;;;;;4269831;33;20383;-60
2021/04/30 05:42:06;;;;;;;19.12;7.07;;;;;;;;;;4272853;33;20315;-60
2021/04/30 05:44:32;;;;;;;20.90;6.57;;;;;;;;;;4278515;33;20779;-60
2021/04/30 05:46:57;;;;;;;21.33;7.03;;;;;;;;;;4269075;33;20220;-61
2021/04/30 05:49:23;;;;;;;22.15;6.82;;;;;;;;;;4281150;33;20271;-63
2021/04/30 05:51:49;;;;;;;20.42;7.50;;;;;;;;;;4277381;33;20246;-62
2021/04/30 05:54:14;;;;;;;21.52;7.22;;;;;;;;;;4276551;33;20589;-61
2021/04/30 05:56:40;;;;;;;18.05;6.00;;;;;;;;;;4266756;33;20235;-62
2021/04/30 05:59:05;;;;;;;18.92;7.15;;;;;;;;;;4258207;33;20449;-61
2021/04/30 06:01:31;;;;;;;16.00;6.97;;;;;;;;;;4279938;33;20241;-61
2021/04/30 06:03:57;;;;;;;18.73;9.20;;;;;;;;;;4265098;33;20298;-65
2021/04/30 06:06:22;;;;;;;23.60;8.85;;;;;;;;;;4268683;33;20288;-65
2021/04/30 06:08:48;;;;;;;22.05;8.43;;;;;;;;;;4262934;33;20303;-64
2021/04/30 06:11:13;;;;;;;18.80;8.45;;;;;;;;;;4271349;33;20323;-62
2021/04/30 06:13:39;;;;;;;17.62;8.23;;;;;;;;;;4274011;33;20308;-62
2021/04/30 06:16:05;;;;;;;18.87;7.47;;;;;;;;;;4272893;33;20326;-62
2021/04/30 06:18:31;;;;;;;15.13;6.27;;;;;;;;;;4277061;33;20756;-62
2021/04/30 06:20:56;;;;;;;25.90;6.57;;;;;;;;;;4273312;33;20220;-61
2021/04/30 06:23:22;;;;;;;24.98;6.10;;;;;;;;;;4273735;33;20378;-63
2021/04/30 06:25:47;;;;;;;15.30;6.62;;;;;;;;;;4280775;33;20244;-59
2021/04/30 06:28:13;;;;;;;24.83;5.68;;;;;;;;;;4268853;33;20382;-59
2021/04/30 06:30:38;;;;;;;12.07;5.50;;;;;;;;;;4266028;33;20590;-60
2021/04/30 06:33:08;;;;;;;19.83;6.60;;;;;;;;;;4274910;33;20254;-58
2021/04/30 06:35:34;;;;;;;23.75;7.12;;;;;;;;;;4271462;33;20247;-59
2021/04/30 06:38:00;;;;;;;12.50;5.60;;;;;;;;;;4280076;33;20568;-59
2021/04/30 06:40:26;;;;;;;20.73;6.50;;;;;;;;;;4270269;33;20313;-59
2021/04/30 06:42:51;;;;;;;21.02;6.85;;;;;;;;;;4280232;33;20323;-59
2021/04/30 06:45:17;;;;;;;28.58;8.63;;;;;;;;;;4271525;33;20354;-59
2021/04/30 06:47:43;;;;;;;23.98;6.90;;;;;;;;;;4272601;33;20240;-62
2021/04/30 06:50:08;;;;;;;21.30;6.60;;;;;;;;;;4282810;33;20365;-62
2021/04/30 06:52:34;;;;;;;13.93;5.65;;;;;;;;;;4275937;33;20245;-61
2021/04/30 06:55:00;;;;;;;20.77;6.95;;;;;;;;;;4276389;33;20299;-62
2021/04/30 06:57:27;;;;;;;19.70;5.32;;;;;;;;;;4281176;33;20290;-60
2021/04/30 06:59:52;;;;;;;22.00;5.07;;;;;;;;;;4271841;33;20637;-61
2021/04/30 07:02:17;;;;;;;19.17;6.53;;;;;;;;;;4279102;33;20243;-61
2021/04/30 07:04:43;;;;;;;23.90;7.37;;;;;;;;;;4273893;33;20311;-63
2021/04/30 07:07:09;;;;;;;24.23;10.48;;;;;;;;;;4282790;33;20269;-62
2021/04/30 07:09:34;;;;;;;19.05;7.28;;;;;;;;;;4272523;33;20220;-62
2021/04/30 07:11:59;;;;;;;23.83;6.07;;;;;;;;;;4277072;33;20236;-63
2021/04/30 07:14:25;;;;;;;20.50;7.70;;;;;;;;;;4279157;33;20283;-64
2021/04/30 07:16:52;;;;;;;21.20;5.62;;;;;;;;;;4281711;33;20623;-63
2021/04/30 07:19:18;;;;;;;17.40;5.68;;;;;;;;;;4281515;33;20216;-63
2021/04/30 07:21:43;;;;;;;18.08;5.40;;;;;;;;;;4275297;33;20303;-62
2021/04/30 07:24:09;;;;;;;19.98;5.40;;;;;;;;;;4280429;33;20366;-64
2021/04/30 07:26:35;;;;;;;14.05;4.22;;;;;;;;;;4279999;33;20295;-62
2021/04/30 07:29:00;;;;;;;24.83;5.70;;;;;;;;;;4274718;33;20456;-59
2021/04/30 07:31:26;;;;;;;16.73;5.62;;;;;;;;;;4271492;33;20334;-60
2021/04/30 07:33:51;;;;;;;14.20;5.65;;;;;;;;;;4271830;33;20303;-61
2021/04/30 07:36:17;;;;;;;19.37;5.37;;;;;;;;;;4272231;33;20219;-61
2021/04/30 07:38:43;;;;;;;17.95;5.18;;;;;;;;;;4273745;33;20287;-60
2021/04/30 07:41:09;;;;;;;28.20;6.37;;;;;;;;;;4271326;33;20247;-60
2021/04/30 07:43:34;;;;;;;18.10;5.15;;;;;;;;;;4271923;33;20299;-60
2021/04/30 07:46:01;;;;;;;27.70;6.32;;;;;;;;;;4275889;33;20283;-60
2021/04/30 07:48:27;;;;;;;23.45;5.53;;;;;;;;;;4274740;33;20895;-60
2021/04/30 07:50:54;;;;;;;17.55;6.15;;;;;;;;;;4276030;33;20661;-56
2021/04/30 07:53:20;;;;;;;15.13;5.18;;;;;;;;;;4274033;33;20267;-59
2021/04/30 07:55:46;;;;;;;36.97;5.65;;;;;;;;;;4279094;33;20365;-59
2021/04/30 07:58:11;;;;;;;15.55;4.87;;;;;;;;;;4279703;33;20634;-59
2021/04/30 08:00:37;;;;;;;21.33;4.80;;;;;;;;;;4271547;33;20243;-58
2021/04/30 08:03:02;;;;;;;23.30;5.50;;;;;;;;;;4272305;33;20239;-58
2021/04/30 08:05:28;;;;;;;14.50;4.80;;;;;;;;;;4278775;33;20334;-58
2021/04/30 08:07:54;;;;;;;16.05;5.87;;;;;;;;;;4279385;33;20715;-59
2021/04/30 08:10:19;;;;;;;17.48;5.62;;;;;;;;;;4270616;33;20280;-58
2021/04/30 08:12:47;;;;;;;16.55;4.82;;;;;;;;;;4279158;33;20831;-59
2021/04/30 08:15:14;;;;;;;14.02;5.10;;;;;;;;;;4275035;33;20291;-59
2021/04/30 08:17:40;;;;;;;19.95;4.55;;;;;;;;;;4274639;33;20336;-58
2021/04/30 08:20:08;;;;;;;24.40;5.53;;;;;;;;;;4290335;33;20402;-59
2021/04/30 08:22:34;;;;;;;16.08;4.25;;;;;;;;;;4277419;33;20244;-57
2021/04/30 08:24:59;;;;;;;13.05;5.30;;;;;;;;;;4274451;33;20309;-58
2021/04/30 08:27:25;;;;;;;15.10;4.60;;;;;;;;;;4282619;33;20338;-58
2021/04/30 08:29:51;;;;;;;19.65;3.92;;;;;;;;;;4271570;33;20359;-59
2021/04/30 08:32:18;;;;;;;20.30;4.78;;;;;;;;;;4277520;33;20287;-58
2021/04/30 08:34:45;;;;;;;9.85;3.28;;;;;;;;;;4276019;33;20230;-55
2021/04/30 08:37:15;;;;;;;15.57;4.12;;;;;;;;;;4282904;33;20243;-56
2021/04/30 08:39:41;;;;;;;16.75;5.50;;;;;;;;;;4270772;33;20673;-56
2021/04/30 08:42:09;;;;;;;13.13;3.90;;;;;;;;;;4276236;33;20287;-57
2021/04/30 08:44:39;;;;;;;20.70;4.82;;;;;;;;;;4275513;33;20262;-55
2021/04/30 08:47:05;;;;;;;16.87;4.55;;;;;;;;;;4281158;33;20524;-55
2021/04/30 08:49:30;;;;;;;14.43;3.85;;;;;;;;;;4273086;33;20350;-56
2021/04/30 08:51:56;;;;;;;14.60;3.67;;;;;;;;;;4266316;33;20267;-55
2021/04/30 08:54:22;;;;;;;13.93;3.50;;;;;;;;;;4274036;33;20278;-56
2021/04/30 08:56:51;;;;;;;12.57;4.10;;;;;;;;;;4276815;33;20308;-56
2021/04/30 08:59:20;;;;;;;13.80;3.83;;;;;;;;;;4282584;33;20234;-56
2021/04/30 09:01:46;;;;;;;14.90;4.22;;;;;;;;;;4278789;33;20342;-55
2021/04/30 09:04:12;;;;;;;18.98;3.40;;;;;;;;;;4278970;33;20275;-56
2021/04/30 09:06:41;;;;;;;19.45;3.28;;;;;;;;;;4276540;33;20303;-55
2021/04/30 09:09:16;;;;;;;15.27;4.80;;;;;;;;;;4273400;33;20228;-56
2021/04/30 09:11:52;;;;;;;9.50;2.97;;;;;;;;;;4274331;33;20228;-55
2021/04/30 09:14:22;;;;;;;16.70;3.95;;;;;;;;;;4269304;33;20266;-57
2021/04/30 09:17:15;;;;;;;13.80;4.22;;;;;;;;;;4271304;33;20228;-57
2021/04/30 09:19:48;;;;;;;12.37;3.22;;;;;;;;;;4272389;33;20243;-58
2021/04/30 09:22:35;;;;;;;15.25;3.10;;;;;;;;;;4277100;33;20251;-56
2021/04/30 09:25:06;;;;;;;11.85;3.40;;;;;;;;;;4270279;33;20335;-57
2021/04/30 09:27:49;;;;;;;7.93;3.08;;;;;;;;;;4270973;33;20232;-57
2021/04/30 09:30:16;;;;;;;18.12;3.47;;;;;;;;;;4263542;33;20209;-57
2021/04/30 09:33:00;;;;;;;7.10;2.28;;;;;;;;;;4271743;33;20563;-56
2021/04/30 09:35:26;;;;;;;18.55;4.12;;;;;;;;;;4266595;33;20406;-57
2021/04/30 09:37:52;;;;;;;10.57;3.40;;;;;;;;;;4268573;33;20244;-57
2021/04/30 09:40:25;;;;;;;12.40;2.80;;;;;;;;;;4269412;33;20666;-57
2021/04/30 09:43:02;;;;;;;16.23;3.75;;;;;;;;;;4274559;33;20681;-57
2021/04/30 09:45:28;;;;;;;12.88;4.60;;;;;;;;;;4275291;33;20270;-55
2021/04/30 09:47:58;;;;;;;19.92;3.70;;;;;;;;;;4274543;33;20343;-58
2021/04/30 09:50:28;;;;;;;15.80;2.97;;;;;;;;;;4268637;33;20316;-56
2021/04/30 09:53:17;;;;;;;14.77;3.15;;;;;;;;;;4276564;33;20272;-55
2021/04/30 09:55:47;;;;;;;17.92;2.72;;;;;;;;;;4267335;33;20611;-55
2021/04/30 09:58:15;;;;;;;14.02;3.25;;;;;;;;;;4278452;33;20200;-56
2021/04/30 10:00:41;;;;;;;16.12;3.80;;;;;;;;;;4270182;33;20614;-56
2021/04/30 10:03:13;;;;;;;23.90;3.47;;;;;;;;;;4276362;33;20328;-56
2021/04/30 10:05:57;;;;;;;14.00;4.15;;;;;;;;;;4278919;33;20274;-56
2021/04/30 10:08:24;;;;;;;10.00;2.85;;;;;;;;;;4277270;33;20563;-57
2021/04/30 10:10:49;;;;;;;26.75;3.92;;;;;;;;;;4278904;33;20267;-57
2021/04/30 10:13:15;;;;;;;12.77;3.47;;;;;;;;;;4275636;33;20317;-56
2021/04/30 10:15:40;;;;;;;9.70;2.97;;;;;;;;;;4268099;33;20250;-58
2021/04/30 10:18:06;;;;;;;14.82;2.65;;;;;;;;;;4260803;33;20223;-57
2021/04/30 10:20:32;;;;;;;13.88;2.97;;;;;;;;;;4272807;33;20263;-55
2021/04/30 10:22:59;;;;;;;12.80;2.97;;;;;;;;;;4276982;33;20220;-57
2021/04/30 10:25:28;;;;;;;9.77;2.35;;;;;;;;;;4268327;33;20234;-56
2021/04/30 10:27:54;;;;;;;15.38;3.67;;;;;;;;;;4282634;33;20305;-56
2021/04/30 10:30:35;;;;;;;14.02;2.65;;;;;;;;;;4277846;33;20242;-57
2021/04/30 10:33:28;;;;;;;14.73;2.72;;;;;;;;;;4276110;33;20511;-57
2021/04/30 10:36:08;;;;;;;11.02;2.78;;;;;;;;;;4275312;33;20254;-57
2021/04/30 10:38:41;;;;;;;9.95;2.58;;;;;;;;;;4277216;33;20269;-57
2021/04/30 10:41:10;;;;;;;13.35;2.85;;;;;;;;;;4280788;33;20399;-57
2021/04/30 10:43:36;;;;;;;19.75;3.00;;;;;;;;;;4275729;33;20339;-57
2021/04/30 10:46:13;;;;;;;11.18;2.28;;;;;;;;;;4278887;33;20212;-57
2021/04/30 10:49:21;;;;;;;16.62;2.87;;;;;;;;;;4271237;33;20291;-56
2021/04/30 10:52:08;;;;;;;11.60;3.05;;;;;;;;;;4252399;33;20295;-57
2021/04/30 10:54:38;;;;;;;9.55;2.33;;;;;;;;;;4270485;33;20383;-57
2021/04/30 10:57:09;;;;;;;14.43;2.50;;;;;;;;;;4275812;33;20244;-56
2021/04/30 10:59:40;;;;;;;20.17;3.20;;;;;;;;;;4276414;33;20203;-56
2021/04/30 11:02:29;;;;;;;8.70;2.12;;;;;;;;;;4275979;33;20390;-57
2021/04/30 11:05:10;;;;;;;14.10;3.00;;;;;;;;;;4276749;33;20363;-57
2021/04/30 11:07:47;;;;;;;15.75;2.72;;;;;;;;;;4277224;33;20384;-57
2021/04/30 11:10:30;;;;;;;12.43;2.65;;;;;;;;;;4269951;33;20216;-57
2021/04/30 11:13:00;;;;;;;14.38;4.05;;;;;;;;;;4277132;33;20287;-57
2021/04/30 11:15:30;;;;;;;13.10;2.12;;;;;;;;;;4279328;33;20701;-56
2021/04/30 11:18:03;;;;;;;13.70;3.42;;;;;;;;;;4274701;33;20335;-57
2021/04/30 11:20:33;;;;;;;13.62;2.42;;;;;;;;;;4274862;33;20733;-58
2021/04/30 11:23:13;;;;;;;25.20;3.55;;;;;;;;;;4267789;33;20233;-57
2021/04/30 11:25:57;;;;;;;13.10;2.28;;;;;;;;;;4271931;33;20267;-58
2021/04/30 11:28:35;;;;;;;17.45;2.72;;;;;;;;;;4275937;33;20338;-57
2021/04/30 11:31:13;;;;;;;8.43;2.80;;;;;;;;;;4276045;33;20366;-57
2021/04/30 11:33:41;;;;;;;10.55;2.00;;;;;;;;;;4283779;33;20263;-57
2021/04/30 11:36:17;;;;;;;9.50;1.52;;;;;;;;;;4271530;33;20381;-56
2021/04/30 11:38:53;;;;;;;10.15;2.30;;;;;;;;;;4277374;33;20235;-56
2021/04/30 11:41:19;;;;;;;10.90;2.47;;;;;;;;;;4272960;33;20349;-55
2021/04/30 11:43:52;;;;;;;11.77;3.60;;;;;;;;;;4268388;33;20737;-57
2021/04/30 11:46:18;;;;;;;10.07;2.12;;;;;;;;;;4262817;33;20247;-57
2021/04/30 11:48:45;;;;;;;10.10;1.92;;;;;;;;;;4276289;33;20315;-58
2021/04/30 11:51:13;;;;;;;12.30;1.98;;;;;;;;;;4269039;33;20255;-57
2021/04/30 11:53:42;;;;;;;18.87;2.37;;;;;;;;;;4277587;33;20304;-56
2021/04/30 11:56:09;;;;;;;22.08;8.45;;;;;;;;;;4277024;33;20340;-57
2021/04/30 11:58:45;;;;;;;10.50;4.78;;;;;;;;;;4273177;33;20240;-57
2021/04/30 12:01:14;;;;;;;16.15;4.87;;;;;;;;;;4278418;33;20312;-58
2021/04/30 12:03:53;;;;;;;28.12;2.40;;;;;;;;;;4270702;33;20244;-58
2021/04/30 12:06:26;;;;;;;14.63;3.37;;;;;;;;;;4271371;33;20241;-57
2021/04/30 12:08:54;;;;;;;10.57;2.65;;;;;;;;;;4265705;33;20663;-57
2021/04/30 12:11:23;;;;;;;22.05;2.53;;;;;;;;;;4280927;33;20227;-57
2021/04/30 12:13:53;;;;;;;16.08;3.40;;;;;;;;;;4263353;33;20236;-57
2021/04/30 12:16:20;;;;;;;12.95;3.72;;;;;;;;;;4271910;33;20693;-57
2021/04/30 12:18:46;;;;;;;7.80;1.85;;;;;;;;;;4257521;33;20303;-59
2021/04/30 12:21:26;;;;;;;10.75;1.92;;;;;;;;;;4280093;33;20246;-58
2021/04/30 12:23:52;;;;;;;10.32;2.22;;;;;;;;;;4274572;33;20554;-59
2021/04/30 12:26:29;;;;;;;9.27;1.60;;;;;;;;;;4273027;33;20359;-59
2021/04/30 12:28:55;;;;;;;10.85;2.15;;;;;;;;;;4270650;33;20297;-59
2021/04/30 12:31:23;;;;;;;8.77;2.60;;;;;;;;;;4260067;33;20292;-58
2021/04/30 12:33:49;;;;;;;11.95;2.75;;;;;;;;;;4277256;33;20539;-57
2021/04/30 12:36:24;;;;;;;12.98;2.15;;;;;;;;;;4275506;33;20650;-57
2021/04/30 12:38:54;;;;;;;22.98;2.90;;;;;;;;;;4266160;33;20208;-57
2021/04/30 12:41:31;;;;;;;12.43;3.15;;;;;;;;;;4280300;33;20232;-57
2021/04/30 12:44:00;;;;;;;9.50;2.42;;;;;;;;;;4265361;33;20262;-57
2021/04/30 12:46:31;;;;;;;10.15;2.65;;;;;;;;;;4271573;33;20333;-58
2021/04/30 12:49:05;;;;;;;10.23;2.45;;;;;;;;;;4271000;33;20301;-58
2021/04/30 12:51:34;;;;;;;20.25;3.00;;;;;;;;;;4262132;33;20220;-57
2021/04/30 12:54:00;;;;;;;20.40;2.10;;;;;;;;;;4282064;33;20255;-58
2021/04/30 12:56:25;;;;;;;18.40;1.85;;;;;;;;;;4263220;33;20351;-57
2021/04/30 12:59:07;;;;;;;14.75;2.78;;;;;;;;;;4274716;33;20350;-56
2021/04/30 13:01:33;;;;;;;14.18;2.20;;;;;;;;;;4280705;33;20339;-58
2021/04/30 13:04:00;;;;;;;20.10;4.12;;;;;;;;;;4269554;33;20681;-58
2021/04/30 13:06:27;;;;;;;10.52;3.37;;;;;;;;;;4271180;33;20322;-58
2021/04/30 13:08:54;;;;;;;12.55;2.85;;;;;;;;;;4273474;33;20251;-58
2021/04/30 13:11:20;;;;;;;12.25;1.95;;;;;;;;;;4258121;33;20300;-58
2021/04/30 13:14:04;;;;;;;9.07;2.00;;;;;;;;;;4283460;33;20732;-57
2021/04/30 13:16:49;;;;;;;5.22;2.33;;;;;;;;;;4274783;33;20248;-58
2021/04/30 13:19:14;;;;;;;10.02;2.50;;;;;;;;;;4268719;33;20270;-59
2021/04/30 13:21:47;;;;;;;11.18;2.80;;;;;;;;;;4279302;33;20257;-58
2021/04/30 13:24:24;;;;;;;20.25;2.58;;;;;;;;;;4266784;33;20259;-58
2021/04/30 13:27:08;;;;;;;9.70;2.20;;;;;;;;;;4279204;33;20240;-59
2021/04/30 13:29:55;;;;;;;16.08;2.55;;;;;;;;;;4260428;33;20244;-59
2021/04/30 13:32:23;;;;;;;19.30;2.53;;;;;;;;;;4270219;33;20304;-59
2021/04/30 13:34:54;;;;;;;13.48;2.47;;;;;;;;;;4274098;33;20220;-60
2021/04/30 13:37:41;;;;;;;15.52;2.92;;;;;;;;;;4262384;33;20236;-59
2021/04/30 13:40:13;;;;;;;13.88;3.10;;;;;;;;;;4271584;33;20242;-59
2021/04/30 13:42:43;;;;;;;8.75;2.53;;;;;;;;;;4268807;33;20283;-61
2021/04/30 13:45:10;;;;;;;17.08;2.65;;;;;;;;;;4276941;33;20221;-58
2021/04/30 13:47:38;;;;;;;14.15;2.95;;;;;;;;;;4276087;33;20466;-58
2021/04/30 13:50:10;;;;;;;11.90;3.37;;;;;;;;;;4272882;33;20220;-58
2021/04/30 13:52:36;;;;;;;15.48;3.33;;;;;;;;;;4270536;33;20283;-59
2021/04/30 13:55:03;;;;;;;9.32;3.00;;;;;;;;;;4269207;33;20314;-58
2021/04/30 13:57:28;;;;;;;13.25;2.30;;;;;;;;;;4271901;33;20228;-59
2021/04/30 13:59:54;;;;;;;16.90;2.83;;;;;;;;;;4275536;33;20333;-59
2021/04/30 14:02:21;;;;;;;11.07;2.45;;;;;;;;;;4268475;33;20292;-59
2021/04/30 14:04:48;;;;;;;8.65;3.28;;;;;;;;;;4271416;33;20212;-58
2021/04/30 14:07:14;;;;;;;8.18;2.50;;;;;;;;;;4275551;33;20228;-59
2021/04/30 14:09:40;;;;;;;17.60;2.80;;;;;;;;;;4275691;33;20242;-59
2021/04/30 14:12:07;;;;;;;12.85;3.25;;;;;;;;;;4278371;33;20334;-59
2021/04/30 14:14:33;;;;;;;17.27;2.87;;;;;;;;;;4278339;33;20327;-59
2021/04/30 14:16:59;;;;;;;19.73;2.72;;;;;;;;;;4276626;33;20359;-58
2021/04/30 14:19:25;;;;;;;9.60;2.40;;;;;;;;;;4276159;33;20269;-59
2021/04/30 14:21:50;;;;;;;15.63;3.35;;;;;;;;;;4292261;33;20240;-60
2021/04/30 14:24:17;;;;;;;12.48;2.55;;;;;;;;;;4280177;33;20401;-60
2021/04/30 14:26:43;;;;;;;16.30;3.28;;;;;;;;;;4265103;33;20389;-60
2021/04/30 14:29:09;;;;;;;21.67;2.85;;;;;;;;;;4275910;33;20302;-60
2021/04/30 14:31:36;;;;;;;13.43;2.35;;;;;;;;;;4283100;33;20574;-60
2021/04/30 14:34:02;;;;;;;15.43;3.60;;;;;;;;;;4281901;33;20559;-59